Time;durP1;ratioP1;P1;durP2;ratioP2;P2;SDS_P1;SDS_P2;PMS_P1;PMS_P2;Temp;Humidity;BMP_temperature;BMP_pressure;BME280_temperature;BME280_humidity;BME280_pressure;Samples;Min_cycle;Max_cycle;Signal;HPM_P1;HPM_P2
2023/04/22 00:01:24;;;;;;;6.32;4.40;;;;;;;11.11;100.00;100789.63;5045368;28;20028;-82
2023/04/22 00:03:50;;;;;;;8.23;4.55;;;;;;;11.07;100.00;100791.59;5029570;28;20040;-83
2023/04/22 00:06:17;;;;;;;8.45;4.60;;;;;;;10.97;100.00;100797.88;5048571;28;20535;-83
2023/04/22 00:08:42;;;;;;;7.72;4.68;;;;;;;11.04;100.00;100792.34;5050741;28;20040;-82
2023/04/22 00:11:08;;;;;;;7.80;4.63;;;;;;;10.96;100.00;100793.44;5033522;28;20388;-82
2023/04/22 00:13:33;;;;;;;7.72;5.38;;;;;;;10.98;100.00;100791.06;5045022;28;20037;-82
2023/04/22 00:15:59;;;;;;;7.80;5.30;;;;;;;10.93;100.00;100788.63;5017275;28;20269;-82
2023/04/22 00:18:24;;;;;;;7.43;5.55;;;;;;;10.89;100.00;100784.97;5041453;28;20029;-83
2023/04/22 00:20:50;;;;;;;9.18;5.88;;;;;;;10.94;100.00;100787.41;5023687;28;20111;-82
2023/04/22 00:23:15;;;;;;;8.10;5.70;;;;;;;10.89;100.00;100776.56;5045666;28;20037;-82
2023/04/22 00:25:41;;;;;;;10.88;6.60;;;;;;;10.85;100.00;100772.94;5046415;28;20099;-82
2023/04/22 00:28:07;;;;;;;8.43;5.90;;;;;;;10.91;100.00;100777.78;5023109;28;20040;-82
2023/04/22 00:30:32;;;;;;;9.32;5.95;;;;;;;10.79;100.00;100761.25;5026190;28;20039;-83
2023/04/22 00:32:57;;;;;;;10.20;6.53;;;;;;;10.76;100.00;100762.81;5025843;28;20524;-83
2023/04/22 00:35:23;;;;;;;11.55;6.88;;;;;;;10.78;100.00;100766.06;5040617;28;20036;-82
2023/04/22 00:37:48;;;;;;;9.85;7.07;;;;;;;10.79;100.00;100755.66;5019178;28;20039;-84
2023/04/22 00:40:14;;;;;;;11.15;6.70;;;;;;;10.82;100.00;100749.31;5022579;28;20035;-84
2023/04/22 00:42:42;;;;;;;10.27;6.85;;;;;;;10.73;100.00;100752.41;5042365;28;20414;-84
2023/04/22 00:45:10;;;;;;;10.77;7.03;;;;;;;10.77;100.00;100753.25;5038438;28;20048;-83
2023/04/22 00:47:36;;;;;;;12.05;6.80;;;;;;;10.84;100.00;100754.53;5043516;28;20068;-83
2023/04/22 00:50:03;;;;;;;9.48;6.25;;;;;;;10.75;100.00;100752.84;5043877;28;20032;-83
2023/04/22 00:52:28;;;;;;;13.50;7.15;;;;;;;10.71;100.00;100759.56;5036807;28;20440;-83
2023/04/22 00:54:54;;;;;;;11.88;7.55;;;;;;;10.71;100.00;100754.78;5042887;28;20029;-83
2023/04/22 00:57:20;;;;;;;10.68;7.68;;;;;;;10.73;100.00;100758.00;5043066;28;20113;-83
2023/04/22 00:59:46;;;;;;;9.25;6.57;;;;;;;10.66;100.00;100751.50;5040192;28;20025;-83
2023/04/22 01:02:12;;;;;;;11.60;7.25;;;;;;;10.62;100.00;100751.44;5043155;28;20025;-84
2023/04/22 01:04:37;;;;;;;12.10;7.50;;;;;;;10.57;100.00;100755.41;5040696;28;20405;-83
2023/04/22 01:07:03;;;;;;;13.48;8.40;;;;;;;10.33;100.00;100753.09;5038283;28;20400;-84
2023/04/22 01:09:29;;;;;;;12.93;7.63;;;;;;;10.35;100.00;100751.53;5042735;28;20079;-83
2023/04/22 01:11:55;;;;;;;11.95;7.00;;;;;;;10.33;100.00;100756.72;5031945;28;20136;-83
2023/04/22 01:14:21;;;;;;;13.05;7.35;;;;;;;10.47;100.00;100755.28;5034709;28;20029;-83
2023/04/22 01:16:47;;;;;;;12.38;7.53;;;;;;;10.28;100.00;100747.81;5021973;28;20031;-83
2023/04/22 01:19:12;;;;;;;12.23;8.13;;;;;;;10.42;100.00;100750.03;5037779;28;20044;-82
2023/04/22 01:21:39;;;;;;;13.38;8.30;;;;;;;10.35;100.00;100751.53;5030045;28;20424;-83
2023/04/22 01:24:05;;;;;;;13.43;7.57;;;;;;;10.54;100.00;100752.56;5034706;28;20059;-83
2023/04/22 01:26:31;;;;;;;11.57;7.50;;;;;;;10.42;100.00;100742.44;5037969;28;20139;-83
2023/04/22 01:28:56;;;;;;;11.35;7.00;;;;;;;10.51;100.00;100747.72;5036621;28;20544;-83
2023/04/22 01:31:23;;;;;;;13.85;8.18;;;;;;;10.52;100.00;100743.72;5026938;28;20037;-83
2023/04/22 01:33:49;;;;;;;9.45;6.50;;;;;;;10.52;100.00;100740.94;5032049;28;20037;-83
2023/04/22 01:36:15;;;;;;;10.60;6.78;;;;;;;10.44;100.00;100739.25;5032219;28;20033;-83
2023/04/22 01:38:41;;;;;;;11.18;7.18;;;;;;;10.48;100.00;100734.50;5033648;28;20512;-82
2023/04/22 01:41:06;;;;;;;11.95;7.38;;;;;;;10.50;100.00;100732.94;5037495;28;20025;-82
2023/04/22 01:43:32;;;;;;;11.73;7.78;;;;;;;10.47;100.00;100738.47;5041990;28;20025;-82
2023/04/22 01:46:00;;;;;;;13.52;8.05;;;;;;;10.40;100.00;100735.59;5040310;28;20041;-82
2023/04/22 01:48:26;;;;;;;10.45;7.03;;;;;;;10.27;100.00;100735.81;5042663;28;20029;-84
2023/04/22 01:50:51;;;;;;;11.20;6.95;;;;;;;10.26;100.00;100728.59;5024334;28;20029;-82
2023/04/22 01:53:17;;;;;;;12.13;7.03;;;;;;;10.33;100.00;100725.09;5041067;28;20071;-82
2023/04/22 01:55:42;;;;;;;10.95;7.82;;;;;;;10.18;100.00;100729.69;5040073;28;20527;-82
2023/04/22 01:58:07;;;;;;;14.65;8.43;;;;;;;10.19;100.00;100728.50;5041116;28;20040;-82
2023/04/22 02:00:33;;;;;;;11.02;7.20;;;;;;;10.16;100.00;100727.28;5024421;28;20061;-82
2023/04/22 02:02:58;;;;;;;9.75;7.15;;;;;;;10.17;100.00;100736.47;5039765;28;20210;-84
2023/04/22 02:05:26;;;;;;;8.50;6.30;;;;;;;10.21;100.00;100730.94;5023788;28;20029;-84
2023/04/22 02:07:52;;;;;;;11.88;6.60;;;;;;;10.13;100.00;100730.03;5036338;28;20654;-84
2023/04/22 02:10:18;;;;;;;12.82;7.72;;;;;;;10.23;100.00;100728.56;5036269;28;20056;-84
2023/04/22 02:12:43;;;;;;;9.60;6.55;;;;;;;10.10;100.00;100719.59;5036402;28;20112;-84
2023/04/22 02:15:09;;;;;;;11.25;7.00;;;;;;;10.09;100.00;100724.38;5033139;28;20051;-84
2023/04/22 02:17:35;;;;;;;8.90;6.65;;;;;;;10.10;100.00;100726.00;5034172;28;20039;-84
2023/04/22 02:20:01;;;;;;;10.32;6.88;;;;;;;10.14;100.00;100724.06;5015967;28;20040;-84
2023/04/22 02:22:28;;;;;;;9.40;6.25;;;;;;;10.05;100.00;100722.72;5032743;28;20482;-83
2023/04/22 02:24:54;;;;;;;12.85;6.78;;;;;;;10.09;100.00;100718.78;5032870;28;20029;-84
2023/04/22 02:27:19;;;;;;;10.25;6.53;;;;;;;10.08;100.00;100717.19;5033636;28;20073;-83
2023/04/22 02:29:44;;;;;;;11.35;6.82;;;;;;;10.05;100.00;100711.53;5036092;28;20021;-83
2023/04/22 02:32:10;;;;;;;10.02;6.85;;;;;;;9.97;100.00;100713.41;5032672;28;20033;-83
2023/04/22 02:34:35;;;;;;;11.40;7.07;;;;;;;9.99;100.00;100708.25;5019661;28;20591;-83
2023/04/22 02:37:01;;;;;;;14.45;7.68;;;;;;;9.87;100.00;100706.50;5038984;28;20040;-83
2023/04/22 02:39:26;;;;;;;10.48;7.50;;;;;;;9.92;100.00;100708.16;5021029;28;20025;-83
2023/04/22 02:41:51;;;;;;;10.75;7.10;;;;;;;9.98;100.00;100701.84;5025854;28;20084;-83
2023/04/22 02:44:17;;;;;;;9.48;6.63;;;;;;;9.92;100.00;100711.75;5041263;28;20111;-83
2023/04/22 02:46:42;;;;;;;10.55;7.22;;;;;;;9.83;100.00;100693.66;5040634;28;20513;-83
2023/04/22 02:49:07;;;;;;;11.63;7.82;;;;;;;9.93;100.00;100709.78;5033363;28;20621;-83
2023/04/22 02:51:33;;;;;;;12.88;6.95;;;;;;;9.97;100.00;100703.06;5019295;28;20036;-84
2023/04/22 02:53:59;;;;;;;9.77;7.00;;;;;;;9.90;100.00;100700.13;5036623;28;20044;-84
2023/04/22 02:56:25;;;;;;;8.30;6.55;;;;;;;9.87;100.00;100695.31;5016107;28;20499;-83
2023/04/22 02:58:50;;;;;;;9.75;6.50;;;;;;;9.89;100.00;100692.94;5025081;28;20046;-83
2023/04/22 03:01:16;;;;;;;10.27;7.07;;;;;;;9.85;100.00;100685.69;5038588;28;20099;-83
2023/04/22 03:03:41;;;;;;;10.00;6.97;;;;;;;9.79;100.00;100676.81;5035984;28;20123;-83
2023/04/22 03:06:07;;;;;;;11.00;7.53;;;;;;;9.73;100.00;100675.53;5037629;28;20072;-83
2023/04/22 03:08:32;;;;;;;11.95;8.00;;;;;;;9.81;100.00;100677.25;5017474;28;20156;-83
2023/04/22 03:10:57;;;;;;;10.65;6.60;;;;;;;9.76;100.00;100672.81;5019674;28;20119;-83
2023/04/22 03:13:22;;;;;;;12.23;7.47;;;;;;;9.78;100.00;100675.19;5021582;28;20035;-83
2023/04/22 03:15:48;;;;;;;9.63;6.95;;;;;;;9.71;100.00;100663.94;5020248;28;20060;-83
2023/04/22 03:18:13;;;;;;;10.68;7.45;;;;;;;9.75;100.00;100675.97;5033713;28;20067;-84
2023/04/22 03:20:39;;;;;;;12.55;7.57;;;;;;;9.62;100.00;100666.19;5031354;28;20120;-83
2023/04/22 03:23:06;;;;;;;9.68;7.22;;;;;;;9.73;100.00;100679.13;5017079;28;20523;-83
2023/04/22 03:25:31;;;;;;;12.55;7.05;;;;;;;9.42;100.00;100669.06;5023079;28;20425;-83
2023/04/22 03:27:57;;;;;;;14.82;8.10;;;;;;;9.50;100.00;100676.38;5015678;28;20466;-83
2023/04/22 03:30:22;;;;;;;12.82;7.75;;;;;;;9.57;100.00;100670.94;5015226;28;20068;-84
2023/04/22 03:32:48;;;;;;;11.05;7.88;;;;;;;9.64;100.00;100669.44;5026906;28;20060;-83
2023/04/22 03:35:13;;;;;;;13.35;9.05;;;;;;;9.65;100.00;100666.22;5033822;28;20052;-83
2023/04/22 03:37:39;;;;;;;10.48;7.50;;;;;;;9.55;100.00;100662.13;5013608;28;20032;-84
2023/04/22 03:40:06;;;;;;;10.75;7.43;;;;;;;9.55;100.00;100658.53;5032643;28;20037;-84
2023/04/22 03:42:31;;;;;;;10.60;7.65;;;;;;;9.60;100.00;100654.59;5035799;28;20023;-83
2023/04/22 03:44:57;;;;;;;10.32;7.38;;;;;;;9.64;100.00;100658.25;5022753;28;20025;-83
2023/04/22 03:47:22;;;;;;;11.18;7.72;;;;;;;9.62;100.00;100650.22;5033857;28;20082;-83
2023/04/22 03:49:47;;;;;;;11.57;8.15;;;;;;;9.42;100.00;100655.09;5038615;28;20032;-83
2023/04/22 03:52:12;;;;;;;13.30;8.23;;;;;;;9.27;100.00;100653.28;5042403;28;20443;-83
2023/04/22 03:54:38;;;;;;;9.15;7.10;;;;;;;9.23;100.00;100650.41;5039105;28;20095;-83
2023/04/22 03:57:03;;;;;;;11.15;7.20;;;;;;;9.47;100.00;100643.63;5022023;28;20037;-83
2023/04/22 03:59:29;;;;;;;13.60;8.52;;;;;;;9.23;100.00;100644.03;5041074;28;20108;-83
2023/04/22 04:01:54;;;;;;;11.75;8.05;;;;;;;9.11;100.00;100650.63;5021133;28;20036;-83
2023/04/22 04:04:21;;;;;;;14.40;8.23;;;;;;;9.14;100.00;100642.31;5019870;28;20036;-83
2023/04/22 04:06:47;;;;;;;14.85;7.80;;;;;;;9.24;100.00;100642.88;5016568;28;20115;-83
2023/04/22 04:09:12;;;;;;;12.95;7.68;;;;;;;9.28;100.00;100633.34;5028843;28;20036;-83
2023/04/22 04:11:37;;;;;;;13.45;9.73;;;;;;;9.38;100.00;100634.69;5043942;28;20056;-84
2023/04/22 04:14:03;;;;;;;10.95;8.00;;;;;;;9.29;100.00;100632.16;5014250;28;20033;-83
2023/04/22 04:16:28;;;;;;;12.38;7.68;;;;;;;9.29;100.00;100636.94;5017543;28;20029;-84
2023/04/22 04:18:54;;;;;;;11.88;8.10;;;;;;;9.16;100.00;100620.41;5013308;28;20083;-83
2023/04/22 04:21:19;;;;;;;13.98;7.55;;;;;;;9.14;100.00;100617.16;5016339;28;20114;-83
2023/04/22 04:23:45;;;;;;;10.57;7.63;;;;;;;9.32;100.00;100623.06;5031015;28;20029;-83
2023/04/22 04:26:11;;;;;;;10.88;7.38;;;;;;;9.30;100.00;100619.03;5030839;28;20037;-83
2023/04/22 04:28:36;;;;;;;11.35;7.78;;;;;;;9.22;100.00;100614.50;5028520;28;20037;-83
2023/04/22 04:31:01;;;;;;;11.90;8.60;;;;;;;9.24;100.00;100612.94;5016095;28;20111;-83
2023/04/22 04:33:28;;;;;;;13.63;8.15;;;;;;;9.15;100.00;100627.19;5019257;28;22654;-83
2023/04/22 04:35:54;;;;;;;11.90;8.18;;;;;;;9.27;100.00;100628.94;5036226;28;20029;-83
2023/04/22 04:38:19;;;;;;;17.30;9.77;;;;;;;9.18;100.00;100622.03;5042357;28;20536;-83
2023/04/22 04:40:44;;;;;;;13.73;9.55;;;;;;;9.12;100.00;100622.31;5028998;28;20075;-83
2023/04/22 04:43:11;;;;;;;15.13;8.77;;;;;;;9.25;100.00;100625.72;5033758;28;20032;-83
2023/04/22 04:45:37;;;;;;;15.60;9.52;;;;;;;9.10;100.00;100630.25;5030170;28;20033;-83
2023/04/22 04:48:05;;;;;;;15.73;8.52;;;;;;;9.15;100.00;100621.59;5024983;28;20414;-83
2023/04/22 04:50:31;;;;;;;15.32;9.45;;;;;;;8.97;100.00;100614.91;5038666;28;20561;-83
2023/04/22 04:52:56;;;;;;;17.55;10.35;;;;;;;9.01;100.00;100626.94;5026413;28;20161;-83
2023/04/22 04:55:22;;;;;;;13.05;9.35;;;;;;;9.14;100.00;100619.16;5037606;28;20027;-83
2023/04/22 04:57:47;;;;;;;14.05;9.23;;;;;;;9.05;100.00;100616.63;5037693;28;20528;-83
2023/04/22 05:00:13;;;;;;;12.55;8.80;;;;;;;9.09;100.00;100623.09;5039542;28;20417;-83
2023/04/22 05:02:39;;;;;;;14.55;9.85;;;;;;;9.09;100.00;100617.50;5019902;28;20032;-83
2023/04/22 05:05:05;;;;;;;14.50;9.23;;;;;;;9.09;100.00;100625.09;5038425;28;20482;-83
2023/04/22 05:07:31;;;;;;;12.27;9.25;;;;;;;9.20;100.00;100626.03;5040068;28;20549;-84
2023/04/22 05:09:56;;;;;;;13.55;8.70;;;;;;;9.20;100.00;100614.06;5021367;28;20017;-83
2023/04/22 05:12:21;;;;;;;15.45;9.65;;;;;;;9.22;100.00;100625.69;5026418;28;20039;-84
2023/04/22 05:14:47;;;;;;;16.48;11.45;;;;;;;9.10;100.00;100630.25;5040423;28;20424;-83
2023/04/22 05:17:13;;;;;;;15.13;10.48;;;;;;;9.15;100.00;100627.19;5018829;28;20145;-83
2023/04/22 05:19:38;;;;;;;13.02;9.50;;;;;;;9.13;100.00;100632.31;5018676;28;20021;-83
2023/04/22 05:22:04;;;;;;;16.33;10.10;;;;;;;9.18;100.00;100624.81;5037930;28;20020;-83
2023/04/22 05:24:29;;;;;;;16.30;9.27;;;;;;;9.19;100.00;100623.63;5037692;28;20048;-83
2023/04/22 05:26:56;;;;;;;17.58;10.57;;;;;;;8.98;100.00;100624.91;5037486;28;20033;-83
2023/04/22 05:29:21;;;;;;;16.70;11.02;;;;;;;8.90;100.00;100635.13;5024095;28;20079;-83
2023/04/22 05:31:46;;;;;;;20.90;12.38;;;;;;;8.85;100.00;100617.88;5039899;28;20037;-83
2023/04/22 05:34:12;;;;;;;16.08;10.65;;;;;;;8.94;100.00;100624.03;5031802;28;20052;-83
2023/04/22 05:36:37;;;;;;;24.63;12.38;;;;;;;8.87;100.00;100621.09;5041071;28;20029;-83
2023/04/22 05:39:03;;;;;;;17.92;11.65;;;;;;;9.01;100.00;100621.34;5037759;28;20052;-83
2023/04/22 05:41:29;;;;;;;23.90;12.77;;;;;;;8.87;100.00;100629.47;5016249;28;20094;-83
2023/04/22 05:43:54;;;;;;;17.35;12.25;;;;;;;8.90;100.00;100625.97;5045035;28;20029;-83
2023/04/22 05:46:19;;;;;;;17.55;13.13;;;;;;;8.95;100.00;100618.06;5034363;28;20112;-83
2023/04/22 05:48:45;;;;;;;21.00;13.43;;;;;;;8.88;100.00;100625.53;5018749;28;20032;-83
2023/04/22 05:51:10;;;;;;;18.20;12.60;;;;;;;8.96;100.00;100621.69;5015942;28;20036;-83
2023/04/22 05:53:36;;;;;;;20.17;11.93;;;;;;;9.09;100.00;100622.28;5038486;28;20064;-83
2023/04/22 05:56:01;;;;;;;19.38;13.00;;;;;;;9.21;100.00;100629.63;5019951;28;20028;-82
2023/04/22 05:58:26;;;;;;;19.23;11.65;;;;;;;9.14;100.00;100631.13;5039275;28;20053;-83
2023/04/22 06:00:52;;;;;;;24.08;12.02;;;;;;;9.13;100.00;100637.91;5021185;28;20082;-83
2023/04/22 06:03:17;;;;;;;22.60;13.10;;;;;;;9.02;100.00;100634.13;5041898;28;20094;-83
2023/04/22 06:05:43;;;;;;;19.40;11.48;;;;;;;9.21;100.00;100630.44;5027317;28;20114;-84
2023/04/22 06:08:08;;;;;;;18.50;12.00;;;;;;;9.46;100.00;100630.81;5018237;28;20044;-83
2023/04/22 06:10:34;;;;;;;18.75;11.85;;;;;;;9.55;100.00;100628.59;5025244;28;20041;-83
2023/04/22 06:13:00;;;;;;;17.17;11.73;;;;;;;9.56;100.00;100630.19;5008618;28;20038;-83
2023/04/22 06:15:25;;;;;;;23.38;13.27;;;;;;;9.48;100.00;100617.28;5012615;28;20052;-83
2023/04/22 06:17:50;;;;;;;23.70;15.40;;;;;;;9.44;100.00;100619.22;5033288;28;20048;-83
2023/04/22 06:20:16;;;;;;;21.08;12.80;;;;;;;9.34;100.00;100608.72;5027988;28;20024;-83
2023/04/22 06:22:41;;;;;;;27.05;15.02;;;;;;;9.41;100.00;100622.78;5026863;28;20742;-83
2023/04/22 06:25:07;;;;;;;20.42;13.20;;;;;;;9.39;100.00;100622.34;5016114;28;20032;-84
2023/04/22 06:27:32;;;;;;;21.23;12.55;;;;;;;9.31;100.00;100615.03;5029165;28;20554;-84
2023/04/22 06:29:58;;;;;;;25.40;16.13;;;;;;;9.28;100.00;100624.19;5035987;28;20527;-84
2023/04/22 06:32:23;;;;;;;22.67;14.32;;;;;;;9.26;100.00;100609.78;5035333;28;20041;-84
2023/04/22 06:34:48;;;;;;;30.10;15.25;;;;;;;9.38;100.00;100620.72;5036917;28;20034;-84
2023/04/22 06:37:14;;;;;;;30.27;15.55;;;;;;;9.32;100.00;100611.88;5036775;28;20063;-83
2023/04/22 06:39:39;;;;;;;21.65;14.27;;;;;;;9.33;100.00;100616.28;5012339;28;20043;-83
2023/04/22 06:42:04;;;;;;;30.52;16.83;;;;;;;9.41;100.00;100611.59;5039102;28;20366;-83
2023/04/22 06:44:31;;;;;;;25.98;16.05;;;;;;;9.44;100.00;100599.66;5036079;28;20037;-84
2023/04/22 06:46:56;;;;;;;27.77;16.52;;;;;;;9.57;100.00;100603.88;5023071;28;20028;-83
2023/04/22 06:49:21;;;;;;;24.35;14.93;;;;;;;9.62;100.00;100605.50;5027299;28;20041;-83
2023/04/22 06:51:47;;;;;;;34.00;17.08;;;;;;;9.50;100.00;100609.34;5031673;28;20075;-83
2023/04/22 06:54:12;;;;;;;35.05;18.95;;;;;;;10.20;100.00;100612.63;5027193;28;20057;-84
2023/04/22 06:56:37;;;;;;;30.90;15.15;;;;;;;9.97;100.00;100605.19;5033661;28;20078;-83
2023/04/22 06:59:03;;;;;;;26.27;17.33;;;;;;;9.81;100.00;100612.97;5025327;28;20033;-84
2023/04/22 07:01:28;;;;;;;31.00;17.85;;;;;;;9.68;100.00;100604.00;5046349;28;20041;-83
2023/04/22 07:03:53;;;;;;;31.98;17.50;;;;;;;9.84;100.00;100612.19;5026524;28;20059;-84
2023/04/22 07:06:19;;;;;;;29.70;16.80;;;;;;;9.97;100.00;100602.38;5030409;28;20088;-83
2023/04/22 07:08:44;;;;;;;33.50;18.00;;;;;;;9.97;100.00;100602.38;5019415;28;20022;-83
2023/04/22 07:11:09;;;;;;;31.80;18.40;;;;;;;9.86;100.00;100603.44;5016939;28;20079;-83
2023/04/22 07:13:35;;;;;;;35.35;19.90;;;;;;;9.86;100.00;100606.22;5033686;28;20067;-83
2023/04/22 07:16:00;;;;;;;31.70;18.67;;;;;;;9.90;100.00;100607.06;5034036;28;20534;-83
2023/04/22 07:18:27;;;;;;;31.88;18.45;;;;;;;10.01;100.00;100608.00;5021199;28;20032;-83
2023/04/22 07:20:52;;;;;;;33.35;17.80;;;;;;;10.11;100.00;100603.75;5040550;28;20044;-82
2023/04/22 07:23:18;;;;;;;32.55;19.45;;;;;;;10.04;100.00;100598.06;5039261;28;20853;-83
2023/04/22 07:25:43;;;;;;;37.58;21.90;;;;;;;10.12;100.00;100606.16;5041090;28;20068;-82
2023/04/22 07:28:08;;;;;;;37.13;20.60;;;;;;;10.29;100.00;100604.78;5026677;28;20071;-83
2023/04/22 07:30:34;;;;;;;34.58;20.42;;;;;;;10.40;100.00;100599.31;5030308;28;20108;-83
2023/04/22 07:32:59;;;;;;;38.53;20.80;;;;;;;10.40;100.00;100592.91;5037568;28;20033;-82
2023/04/22 07:35:25;;;;;;;35.58;20.30;;;;;;;10.77;100.00;100599.28;5024225;28;20025;-82
2023/04/22 07:37:50;;;;;;;36.85;19.65;;;;;;;10.64;100.00;100592.34;5019541;28;20029;-83
2023/04/22 07:40:15;;;;;;;37.00;20.63;;;;;;;10.71;100.00;100600.00;5033510;28;20381;-83
2023/04/22 07:42:41;;;;;;;35.92;19.02;;;;;;;10.82;100.00;100586.13;5035270;28;20140;-83
2023/04/22 07:45:07;;;;;;;37.90;21.20;;;;;;;10.86;100.00;100587.75;5018545;28;20382;-82
2023/04/22 07:47:32;;;;;;;34.67;19.73;;;;;;;10.93;100.00;100589.78;5018416;28;20425;-83
2023/04/22 07:49:58;;;;;;;32.85;19.38;;;;;;;10.96;100.00;100580.59;5030554;28;20030;-83
2023/04/22 07:52:23;;;;;;;29.98;18.42;;;;;;;11.03;100.00;100575.09;5036510;28;20089;-83
2023/04/22 07:54:49;;;;;;;33.22;17.73;;;;;;;11.12;100.00;100578.34;5038525;28;20024;-83
2023/04/22 07:57:14;;;;;;;26.05;16.10;;;;;;;11.19;100.00;100581.22;5024423;28;20116;-83
2023/04/22 07:59:39;;;;;;;30.65;17.58;;;;;;;11.34;100.00;100584.09;5037799;28;20085;-83
2023/04/22 08:02:05;;;;;;;34.13;19.73;;;;;;;11.40;100.00;100582.53;5036845;28;20029;-83
2023/04/22 08:04:30;;;;;;;27.33;17.80;;;;;;;11.48;100.00;100584.19;5039587;28;20523;-83
2023/04/22 08:06:56;;;;;;;32.55;18.83;;;;;;;11.52;100.00;100576.59;5029740;28;20054;-83
2023/04/22 08:09:21;;;;;;;29.98;17.20;;;;;;;11.60;100.00;100572.63;5020022;28;20021;-83
2023/04/22 08:11:47;;;;;;;28.70;18.02;;;;;;;11.80;100.00;100589.16;5041054;28;20486;-83
2023/04/22 08:14:12;;;;;;;28.95;17.67;;;;;;;11.80;100.00;100575.13;5025293;28;20071;-83
2023/04/22 08:16:38;;;;;;;33.40;18.42;;;;;;;11.88;100.00;100587.19;5034492;28;20049;-83
2023/04/22 08:19:04;;;;;;;26.50;17.08;;;;;;;11.89;100.00;100578.41;5013061;28;20112;-81
2023/04/22 08:21:30;;;;;;;29.23;16.58;;;;;;;12.16;100.00;100575.28;5019103;28;20163;-83
2023/04/22 08:23:55;;;;;;;27.80;17.10;;;;;;;12.31;100.00;100556.50;5028524;28;20551;-83
2023/04/22 08:26:21;;;;;;;23.13;14.80;;;;;;;12.42;100.00;100562.94;5046524;28;20044;-83
2023/04/22 08:28:46;;;;;;;28.55;15.00;;;;;;;12.58;100.00;100554.91;5044000;28;20025;-82
2023/04/22 08:31:12;;;;;;;24.60;14.02;;;;;;;12.61;100.00;100556.16;5048596;28;20028;-83
2023/04/22 08:33:38;;;;;;;29.70;16.50;;;;;;;12.77;100.00;100561.34;5044551;28;20065;-83
2023/04/22 08:36:04;;;;;;;26.35;15.88;;;;;;;12.89;100.00;100568.59;5044478;28;21882;-83
2023/04/22 08:38:30;;;;;;;24.85;14.35;;;;;;;12.90;100.00;100567.38;5044117;28;20381;-83
2023/04/22 08:40:56;;;;;;;28.58;15.98;;;;;;;13.12;100.00;100574.59;5042427;28;20029;-83
2023/04/22 08:43:24;;;;;;;25.83;15.55;;;;;;;13.21;100.00;100563.72;5045728;28;20048;-83
2023/04/22 08:45:51;;;;;;;24.08;14.55;;;;;;;13.14;100.00;100569.38;5024301;28;20036;-83
2023/04/22 08:48:17;;;;;;;25.00;15.98;;;;;;;13.27;100.00;100572.56;5032902;28;20512;-83
2023/04/22 08:50:43;;;;;;;22.85;14.05;;;;;;;13.36;100.00;100575.00;5042647;28;20056;-83
2023/04/22 08:53:08;;;;;;;27.17;15.98;;;;;;;13.59;100.00;100569.72;5042343;28;20072;-83
2023/04/22 08:55:35;;;;;;;28.33;16.15;;;;;;;13.66;100.00;100562.47;5043404;28;20048;-83
2023/04/22 08:58:02;;;;;;;24.15;14.60;;;;;;;13.75;100.00;100552.38;5027670;28;20374;-83
2023/04/22 09:00:29;;;;;;;22.60;13.55;;;;;;;13.86;100.00;100552.34;5042132;28;20041;-83
2023/04/22 09:02:59;;;;;;;25.73;15.02;;;;;;;13.58;100.00;100548.44;5034411;28;20104;-82
2023/04/22 09:05:26;;;;;;;24.70;13.95;;;;;;;13.62;100.00;100528.75;5044377;28;20379;-83
2023/04/22 09:07:52;;;;;;;20.40;13.15;;;;;;;13.81;100.00;100528.25;5027363;28;20044;-83
2023/04/22 09:10:18;;;;;;;21.70;14.57;;;;;;;14.11;100.00;100518.44;5040460;28;20033;-83
2023/04/22 09:12:45;;;;;;;22.80;13.73;;;;;;;14.24;100.00;100521.59;5040463;28;20032;-83
2023/04/22 09:15:11;;;;;;;22.92;13.88;;;;;;;14.35;100.00;100519.50;5039207;28;20033;-82
2023/04/22 09:17:40;;;;;;;25.17;15.68;;;;;;;14.52;100.00;100516.97;5044189;28;20038;-82
2023/04/22 09:20:07;;;;;;;22.58;14.15;;;;;;;14.54;100.00;100508.91;5042294;28;20017;-83
2023/04/22 09:22:44;;;;;;;22.45;13.70;;;;;;;14.63;100.00;100504.44;5043655;28;20754;-83
2023/04/22 09:25:17;;;;;;;17.83;11.13;;;;;;;14.53;100.00;100499.66;5025002;28;20502;-83
2023/04/22 09:27:47;;;;;;;21.13;13.13;;;;;;;14.44;100.00;100497.31;5030758;28;20035;-83
2023/04/22 09:30:13;;;;;;;26.75;13.55;;;;;;;14.55;100.00;100514.16;5040497;28;20028;-83
2023/04/22 09:32:39;;;;;;;24.98;13.18;;;;;;;14.64;100.00;100508.06;5046873;28;20316;-83
2023/04/22 09:35:05;;;;;;;19.90;14.02;;;;;;;14.96;100.00;100521.06;5031857;28;20029;-81
2023/04/22 09:37:32;;;;;;;20.95;12.55;;;;;;;14.78;100.00;100519.22;5024508;28;20027;-83
2023/04/22 09:39:58;;;;;;;18.45;11.20;;;;;;;15.06;100.00;100525.78;5020752;28;20032;-83
2023/04/22 09:42:23;;;;;;;20.15;11.48;;;;;;;15.17;100.00;100526.47;5037255;28;20031;-84
2023/04/22 09:44:53;;;;;;;22.48;12.98;;;;;;;15.27;100.00;100524.78;5023287;28;20079;-83
2023/04/22 09:47:20;;;;;;;20.30;12.10;;;;;;;15.36;100.00;100524.28;5041796;28;20029;-84
2023/04/22 09:49:48;;;;;;;20.98;11.85;;;;;;;15.63;100.00;100527.19;5024012;28;20577;-83
2023/04/22 09:52:32;;;;;;;16.98;11.55;;;;;;;15.82;100.00;100528.59;5015184;28;20632;-85
2023/04/22 09:54:57;;;;;;;20.52;12.30;;;;;;;16.00;100.00;100515.06;5021602;28;20469;-85
2023/04/22 09:57:23;;;;;;;18.48;12.52;;;;;;;16.23;100.00;100510.69;5024118;28;20108;-83
2023/04/22 09:59:51;;;;;;;18.33;11.20;;;;;;;16.15;100.00;100518.47;5043620;28;20355;-83
2023/04/22 10:02:17;;;;;;;20.55;12.23;;;;;;;16.21;100.00;100513.13;5027663;28;20013;-86
2023/04/22 10:04:43;;;;;;;19.10;11.38;;;;;;;16.33;100.00;100494.81;5026211;28;20940;-86
2023/04/22 10:07:08;;;;;;;17.58;10.13;;;;;;;16.29;100.00;100486.41;5026800;28;20059;-87
2023/04/22 10:09:34;;;;;;;12.88;8.23;;;;;;;16.33;100.00;100473.00;5030362;28;20047;-86
2023/04/22 10:12:00;;;;;;;17.23;9.75;;;;;;;16.67;100.00;100484.19;5030506;28;20297;-86
2023/04/22 10:14:26;;;;;;;12.85;6.75;;;;;;;16.79;100.00;100485.56;5024049;28;20785;-86
2023/04/22 10:16:57;;;;;;;14.82;9.80;;;;;;;16.76;100.00;100477.97;5022773;28;20040;-85
2023/04/22 10:19:24;;;;;;;17.20;10.85;;;;;;;17.03;100.00;100480.75;5021848;28;20030;-85
2023/04/22 10:21:55;;;;;;;12.63;9.05;;;;;;;17.08;100.00;100476.63;5012462;28;20118;-86
2023/04/22 10:24:20;;;;;;;12.65;5.68;;;;;;;16.94;95.92;100474.06;5027643;28;20029;-85
2023/04/22 10:26:53;;;;;;;13.25;8.65;;;;;;;17.02;99.95;100475.53;5040377;28;20047;-86
2023/04/22 10:29:20;;;;;;;10.35;6.60;;;;;;;17.30;96.37;100474.16;5035685;28;20094;-85
2023/04/22 10:32:02;;;;;;;13.95;8.30;;;;;;;17.30;94.55;100467.72;5010334;28;20028;-85
2023/04/22 10:34:29;;;;;;;10.63;6.40;;;;;;;17.45;92.85;100469.81;5033864;28;20446;-84
2023/04/22 10:37:06;;;;;;;13.00;8.38;;;;;;;17.81;92.86;100468.25;5037269;28;20116;-85
2023/04/22 10:39:31;;;;;;;15.00;9.43;;;;;;;17.89;98.41;100469.72;5015843;28;20033;-84
2023/04/22 10:42:11;;;;;;;10.48;6.68;;;;;;;17.74;93.11;100465.59;5029811;28;20048;-85
2023/04/22 10:44:53;;;;;;;14.38;8.90;;;;;;;18.07;96.79;100464.47;5007676;28;20038;-86
2023/04/22 10:47:36;;;;;;;13.48;7.72;;;;;;;17.82;94.33;100464.22;5021056;28;20422;-79
2023/04/22 10:50:17;;;;;;;12.00;6.70;;;;;;;17.74;94.17;100466.38;5028715;28;20448;-79
2023/04/22 10:52:46;;;;;;;9.00;6.22;;;;;;;17.51;94.72;100464.44;5032719;28;20041;-79
2023/04/22 10:55:12;;;;;;;11.48;8.27;;;;;;;17.58;96.49;100461.50;5042238;28;20037;-79
2023/04/22 10:57:43;;;;;;;11.95;7.85;;;;;;;17.78;95.77;100455.78;5037942;28;20637;-79
2023/04/22 11:00:25;;;;;;;11.15;7.70;;;;;;;17.94;96.39;100451.41;5010608;28;20501;-80
2023/04/22 11:02:53;;;;;;;12.52;7.60;;;;;;;18.02;94.77;100455.69;5016683;28;20036;-80
2023/04/22 11:05:20;;;;;;;13.27;7.57;;;;;;;18.18;92.45;100452.09;5013760;28;20049;-79